createdAt,value
2018-07-17T00:00:19.411Z,66.90
2018-07-17T00:02:47.744Z,68.30
2018-07-17T00:05:16.088Z,69.30
2018-07-17T00:07:44.443Z,70.50
2018-07-17T00:10:12.765Z,71.20
2018-07-17T00:12:41.144Z,71.90
2018-07-17T00:15:09.484Z,72.90
2018-07-17T00:17:37.823Z,73.60
2018-07-17T00:20:06.160Z,72.70
2018-07-17T00:22:34.532Z,74.10
2018-07-17T00:25:03.848Z,74.80
2018-07-17T00:27:32.163Z,75.10
2018-07-17T00:30:00.481Z,75.30
2018-07-17T00:32:29.321Z,76.10
2018-07-17T00:34:57.984Z,76.30
2018-07-17T00:37:26.324Z,76.50
2018-07-17T00:39:54.635Z,76.70
2018-07-17T00:42:22.959Z,73.60
2018-07-17T00:44:51.263Z,72.40
2018-07-17T00:47:19.579Z,72.80
2018-07-17T00:49:47.936Z,70.80
2018-07-17T00:52:16.419Z,70.60
2018-07-17T00:54:44.743Z,71.00
2018-07-17T00:57:13.084Z,70.40
2018-07-17T00:59:41.427Z,70.60
2018-07-17T01:02:14.880Z,70.60
2018-07-17T01:04:48.620Z,71.20
2018-07-17T01:07:22.321Z,72.20
2018-07-17T01:09:55.916Z,72.30
2018-07-17T01:12:23.500Z,72.60
2018-07-17T01:14:55.496Z,73.00
2018-07-17T01:17:24.331Z,73.40
2018-07-17T01:19:52.655Z,73.40
2018-07-17T01:22:20.963Z,74.10
2018-07-17T01:24:49.323Z,74.50
2018-07-17T01:27:17.719Z,74.50
2018-07-17T01:29:46.539Z,74.60
2018-07-17T01:32:15.947Z,75.00
2018-07-17T01:34:44.247Z,75.20
2018-07-17T01:37:12.592Z,75.20
2018-07-17T01:39:40.928Z,76.10
2018-07-17T01:42:09.283Z,76.00
2018-07-17T01:44:37.572Z,75.50
2018-07-17T01:47:05.919Z,76.30
2018-07-17T01:49:34.267Z,75.90
2018-07-17T01:52:02.581Z,76.00
2018-07-17T01:54:30.901Z,76.60
2018-07-17T01:56:59.204Z,76.90
2018-07-17T01:59:28.196Z,79.20
2018-07-17T02:01:56.483Z,79.30
2018-07-17T02:04:24.876Z,80.20
2018-07-17T02:06:53.732Z,81.70
2018-07-17T02:09:22.040Z,83.30
2018-07-17T02:11:50.355Z,81.90
2018-07-17T02:14:18.672Z,81.60
2018-07-17T02:16:46.984Z,80.60
2018-07-17T02:19:15.313Z,83.00
2018-07-17T02:21:43.615Z,83.00
2018-07-17T02:24:11.937Z,83.10
2018-07-17T02:26:40.304Z,83.90
2018-07-17T02:29:08.620Z,85.80
2018-07-17T02:31:36.952Z,84.90
2018-07-17T02:34:05.353Z,85.10
2018-07-17T02:36:33.673Z,85.10
2018-07-17T02:39:01.985Z,84.90
2018-07-17T02:41:30.332Z,85.70
2018-07-17T02:43:58.652Z,86.70
2018-07-17T02:46:26.986Z,86.60
2018-07-17T02:48:55.300Z,85.90
2018-07-17T02:51:23.656Z,86.60
2018-07-17T02:53:51.964Z,87.10
2018-07-17T02:56:20.296Z,86.10
2018-07-17T02:58:48.716Z,85.00
2018-07-17T03:01:17.049Z,83.50
2018-07-17T03:03:45.343Z,84.10
2018-07-17T03:06:13.669Z,83.20
2018-07-17T03:08:41.988Z,82.80
2018-07-17T03:11:10.306Z,83.50
2018-07-17T03:13:38.616Z,84.30
2018-07-17T03:16:06.952Z,84.20
2018-07-17T03:18:35.288Z,84.10
2018-07-17T03:21:03.680Z,85.00
2018-07-17T03:23:32.036Z,85.90
2018-07-17T03:26:00.344Z,86.60
2018-07-17T03:28:28.692Z,86.30
2018-07-17T03:30:56.996Z,86.80
2018-07-17T03:33:25.348Z,87.20
2018-07-17T03:35:53.676Z,87.40
2018-07-17T03:38:22.015Z,87.60
2018-07-17T03:40:50.335Z,88.00
2018-07-17T03:43:18.636Z,88.00
2018-07-17T03:45:46.968Z,88.00
2018-07-17T03:48:15.280Z,87.90
2018-07-17T03:50:43.636Z,87.60
2018-07-17T03:53:11.992Z,87.60
2018-07-17T03:55:40.376Z,87.30
2018-07-17T03:58:08.713Z,87.50
2018-07-17T04:00:37.024Z,87.40
2018-07-17T04:03:05.344Z,86.90
2018-07-17T04:05:33.700Z,87.20
2018-07-17T04:08:02.006Z,87.20
2018-07-17T04:10:30.353Z,87.50
2018-07-17T04:12:58.660Z,88.10
2018-07-17T04:15:26.985Z,89.00
2018-07-17T04:17:55.337Z,89.20
2018-07-17T04:20:23.630Z,89.50
2018-07-17T04:22:52.057Z,89.70
2018-07-17T04:25:20.604Z,89.10
2018-07-17T04:27:48.920Z,90.20
2018-07-17T04:30:17.281Z,90.80
2018-07-17T04:32:45.585Z,91.00
2018-07-17T04:35:14.615Z,90.80
2018-07-17T04:37:43.520Z,91.30
2018-07-17T04:40:11.847Z,91.60
2018-07-17T04:42:40.164Z,91.10
2018-07-17T04:45:08.484Z,91.80
2018-07-17T04:47:36.825Z,91.70
2018-07-17T04:50:05.184Z,92.10
2018-07-17T04:52:33.553Z,91.70
2018-07-17T04:55:02.363Z,91.60
2018-07-17T04:57:30.688Z,91.70
2018-07-17T04:59:59.015Z,91.70
2018-07-17T05:02:27.319Z,91.70
2018-07-17T05:04:55.913Z,91.60
2018-07-17T05:07:24.249Z,92.10
2018-07-17T05:09:52.568Z,92.20
2018-07-17T05:12:20.896Z,91.70
2018-07-17T05:14:49.200Z,91.60
2018-07-17T05:17:17.524Z,91.50
2018-07-17T05:19:45.855Z,90.90
2018-07-17T05:22:14.184Z,90.30
2018-07-17T05:24:43.183Z,90.20
2018-07-17T05:27:11.544Z,90.90
2018-07-17T05:29:39.948Z,91.70
2018-07-17T05:32:08.340Z,90.40
2018-07-17T05:34:36.667Z,90.40
2018-07-17T05:37:05.051Z,90.40
2018-07-17T05:39:33.379Z,89.70
2018-07-17T05:42:01.752Z,89.80
2018-07-17T05:44:30.058Z,89.50
2018-07-17T05:46:58.388Z,90.10
2018-07-17T05:49:26.797Z,89.50
2018-07-17T05:51:55.443Z,89.10
2018-07-17T05:54:23.771Z,88.80
2018-07-17T05:59:21.756Z,88.50
2018-07-17T06:01:50.105Z,87.50
2018-07-17T06:04:18.447Z,86.80
2018-07-17T06:06:46.767Z,86.40
2018-07-17T06:09:15.142Z,86.80
2018-07-17T06:11:43.459Z,85.40
2018-07-17T06:14:12.168Z,85.30
2018-07-17T06:16:40.525Z,84.90
2018-07-17T06:19:08.909Z,84.80
2018-07-17T06:21:37.244Z,83.90
2018-07-17T06:24:05.637Z,83.00
2018-07-17T06:26:34.665Z,83.20
2018-07-17T06:29:02.952Z,83.50
2018-07-17T06:31:33.340Z,83.10
2018-07-17T06:34:01.639Z,83.80
2018-07-17T06:36:29.941Z,83.40
2018-07-17T06:38:58.338Z,83.90
2018-07-17T06:41:26.573Z,83.90
2018-07-17T06:43:54.887Z,83.90
2018-07-17T06:46:23.200Z,83.30
2018-07-17T06:48:51.521Z,83.40
2018-07-17T06:51:20.224Z,83.00
2018-07-17T06:53:48.541Z,82.80
2018-07-17T06:56:16.876Z,83.20
2018-07-17T06:58:45.205Z,83.30
2018-07-17T07:01:14.156Z,82.50
2018-07-17T07:03:42.791Z,81.80
2018-07-17T07:06:11.140Z,83.10
2018-07-17T07:08:40.269Z,82.40
2018-07-17T07:11:08.676Z,82.70
2018-07-17T07:13:37.027Z,82.70
2018-07-17T07:16:05.574Z,82.90
2018-07-17T07:18:34.047Z,83.40
2018-07-17T07:21:02.358Z,83.20
2018-07-17T07:23:30.852Z,83.10
2018-07-17T07:25:59.208Z,82.60
2018-07-17T07:28:27.515Z,81.40
2018-07-17T07:30:55.847Z,80.70
2018-07-17T07:33:24.156Z,80.30
2018-07-17T07:35:52.504Z,80.10
2018-07-17T07:38:20.840Z,80.60
2018-07-17T07:40:49.155Z,81.50
2018-07-17T07:43:17.480Z,80.70
2018-07-17T07:45:45.791Z,80.70
2018-07-17T07:48:14.220Z,79.80
2018-07-17T07:50:42.525Z,79.70
2018-07-17T07:53:10.860Z,80.30
2018-07-17T07:55:39.250Z,80.40
2018-07-17T07:58:08.022Z,81.00
2018-07-17T08:00:36.412Z,79.80
2018-07-17T08:03:04.780Z,80.70
2018-07-17T08:05:33.085Z,80.90
2018-07-17T08:08:01.461Z,80.90
2018-07-17T08:10:29.819Z,80.30
2018-07-17T08:12:58.184Z,80.70
2018-07-17T08:15:26.496Z,80.80
2018-07-17T08:17:54.815Z,80.80
2018-07-17T08:20:23.837Z,80.30
2018-07-17T08:22:52.160Z,80.00
2018-07-17T08:25:20.523Z,79.60
2018-07-17T08:27:48.846Z,79.80
2018-07-17T08:30:17.184Z,78.00
2018-07-17T08:32:45.552Z,78.20
2018-07-17T08:35:13.909Z,78.30
2018-07-17T08:37:42.219Z,77.60
2018-07-17T08:40:10.613Z,77.30
2018-07-17T08:42:38.934Z,74.50
2018-07-17T08:45:07.404Z,73.70
2018-07-17T08:47:35.804Z,74.00
2018-07-17T08:50:04.135Z,74.20
2018-07-17T08:52:32.515Z,72.30
2018-07-17T08:55:01.301Z,72.20
2018-07-17T08:57:29.631Z,71.60
2018-07-17T08:59:57.932Z,70.90
2018-07-17T09:02:26.308Z,69.80
2018-07-17T09:04:54.912Z,69.20
2018-07-17T09:07:23.279Z,69.50
2018-07-17T09:09:51.595Z,68.40
2018-07-17T09:12:19.911Z,67.70
2018-07-17T09:14:48.236Z,68.70
2018-07-17T09:17:16.799Z,69.30
2018-07-17T09:19:45.145Z,69.50
2018-07-17T09:22:13.663Z,70.60
2018-07-17T09:24:42.014Z,69.00
2018-07-17T09:27:10.372Z,69.20
2018-07-17T09:29:38.731Z,68.40
2018-07-17T09:32:07.084Z,69.00
2018-07-17T09:34:35.398Z,68.00
2018-07-17T09:37:03.733Z,66.90
2018-07-17T09:39:32.169Z,67.50
2018-07-17T09:42:00.491Z,65.90
2018-07-17T09:44:29.398Z,66.50
2018-07-17T09:46:57.737Z,65.40
2018-07-17T09:49:26.035Z,64.30
2018-07-17T09:51:54.388Z,63.70
2018-07-17T09:54:22.710Z,64.60
2018-07-17T09:56:51.081Z,63.60
2018-07-17T09:59:20.040Z,64.10
2018-07-17T10:01:53.683Z,63.80
2018-07-17T10:04:22.024Z,60.80
2018-07-17T10:06:50.333Z,62.00
2018-07-17T10:09:18.650Z,61.10
2018-07-17T10:11:46.993Z,58.90
2018-07-17T10:14:15.355Z,59.10
2018-07-17T10:16:43.716Z,61.20
2018-07-17T10:19:12.059Z,58.50
2018-07-17T10:21:40.435Z,59.80
2018-07-17T10:24:08.840Z,58.50
2018-07-17T10:26:37.313Z,58.80
2018-07-17T10:29:05.563Z,57.70
2018-07-17T10:31:33.880Z,57.60
2018-07-17T10:34:02.205Z,56.10
2018-07-17T10:36:30.528Z,55.40
2018-07-17T10:38:58.828Z,56.40
2018-07-17T10:41:27.156Z,55.80
2018-07-17T10:43:55.527Z,55.60
2018-07-17T10:46:23.848Z,56.00
2018-07-17T10:48:52.173Z,55.10
2018-07-17T10:51:20.479Z,55.10
2018-07-17T10:53:48.800Z,54.30
2018-07-17T10:56:17.107Z,54.40
2018-07-17T10:58:45.444Z,53.60
2018-07-17T11:01:13.772Z,53.60
2018-07-17T11:03:42.075Z,52.10
2018-07-17T11:06:10.396Z,52.50
2018-07-17T11:08:39.124Z,51.60
2018-07-17T11:11:07.956Z,52.50
2018-07-17T11:13:36.286Z,50.50
2018-07-17T11:16:05.572Z,50.90
2018-07-17T11:18:33.891Z,52.00
2018-07-17T11:21:02.229Z,52.20
2018-07-17T11:23:30.564Z,52.00
2018-07-17T11:25:58.885Z,52.30
2018-07-17T11:28:27.268Z,51.90
2018-07-17T11:30:55.704Z,52.10
2018-07-17T11:33:24.008Z,52.20
2018-07-17T11:35:52.332Z,52.70
2018-07-17T11:38:20.658Z,51.80
2018-07-17T11:40:48.968Z,50.10
2018-07-17T11:43:17.316Z,47.60
2018-07-17T11:45:45.637Z,48.50
2018-07-17T11:48:13.977Z,47.70
2018-07-17T11:50:42.287Z,48.50
2018-07-17T11:53:10.658Z,49.20
2018-07-17T11:55:39.026Z,48.70
2018-07-17T11:58:07.383Z,51.20
2018-07-17T12:00:35.689Z,51.10
2018-07-17T12:03:04.016Z,50.70
2018-07-17T12:05:32.384Z,51.80
2018-07-17T12:08:00.644Z,50.80
2018-07-17T12:10:28.991Z,49.70
2018-07-17T12:12:57.329Z,49.80
2018-07-17T12:15:25.652Z,51.50
2018-07-17T12:17:53.975Z,50.10
2018-07-17T12:20:22.491Z,49.00
2018-07-17T12:22:50.696Z,48.00
2018-07-17T12:25:19.063Z,49.30
2018-07-17T12:27:47.380Z,49.50
2018-07-17T12:30:15.740Z,50.50
2018-07-17T12:32:45.068Z,50.00
2018-07-17T12:35:13.956Z,50.30
2018-07-17T12:37:42.307Z,51.20
2018-07-17T12:40:10.625Z,51.40
2018-07-17T12:42:39.910Z,51.20
2018-07-17T12:45:08.256Z,52.30
2018-07-17T12:47:36.576Z,50.50
2018-07-17T12:50:05.447Z,49.50
2018-07-17T12:52:33.648Z,52.30
2018-07-17T12:55:03.332Z,51.90
2018-07-17T12:57:31.620Z,51.70
2018-07-17T13:00:00.644Z,49.10
2018-07-17T13:02:28.963Z,47.90
2018-07-17T13:04:57.276Z,47.40
2018-07-17T13:07:25.586Z,47.40
2018-07-17T13:09:53.909Z,48.50
2018-07-17T13:12:22.204Z,47.90
2018-07-17T13:14:50.573Z,47.50
2018-07-17T13:17:18.883Z,46.90
2018-07-17T13:19:47.212Z,47.90
2018-07-17T13:22:15.525Z,46.60
2018-07-17T13:24:43.840Z,47.40
2018-07-17T13:27:12.160Z,46.10
2018-07-17T13:29:40.523Z,45.20
2018-07-17T13:32:08.843Z,45.80
2018-07-17T13:34:37.172Z,48.80
2018-07-17T13:37:05.490Z,49.00
2018-07-17T13:39:33.815Z,49.50
2018-07-17T13:42:02.135Z,48.30
2018-07-17T13:44:30.516Z,47.80
2018-07-17T13:46:58.825Z,48.50
2018-07-17T13:49:27.116Z,50.00
2018-07-17T13:51:55.439Z,50.10
2018-07-17T13:54:23.740Z,48.60
2018-07-17T13:56:52.068Z,47.50
2018-07-17T13:59:20.403Z,45.90
2018-07-17T14:01:48.715Z,45.90
2018-07-17T14:04:16.992Z,44.30
2018-07-17T14:06:46.067Z,45.40
2018-07-17T14:09:14.371Z,45.80
2018-07-17T14:11:42.691Z,44.90
2018-07-17T14:14:10.995Z,45.10
2018-07-17T14:16:39.301Z,45.70
2018-07-17T14:19:07.749Z,46.00
2018-07-17T14:21:36.101Z,44.80
2018-07-17T14:24:04.498Z,45.00
2018-07-17T14:26:33.185Z,45.50
2018-07-17T14:29:01.496Z,46.80
2018-07-17T14:31:29.985Z,46.50
2018-07-17T14:33:58.316Z,47.00
2018-07-17T14:36:26.616Z,46.20
2018-07-17T14:38:55.043Z,45.90
2018-07-17T14:41:23.312Z,43.00
2018-07-17T14:43:51.635Z,42.60
2018-07-17T14:46:19.940Z,42.90
2018-07-17T14:48:48.285Z,43.00
2018-07-17T14:51:16.584Z,43.20
2018-07-17T14:53:44.900Z,44.00
2018-07-17T14:56:13.251Z,44.10
2018-07-17T14:58:42.336Z,44.70
2018-07-17T15:01:10.796Z,44.50
2018-07-17T15:03:39.127Z,45.50
2018-07-17T15:06:07.463Z,48.20
2018-07-17T15:08:35.788Z,47.40
2018-07-17T15:11:04.246Z,46.00
2018-07-17T15:13:32.559Z,45.50
2018-07-17T15:16:01.018Z,46.80
2018-07-17T15:18:29.232Z,47.90
2018-07-17T15:20:57.596Z,48.50
2018-07-17T15:23:25.944Z,48.60
2018-07-17T15:25:54.248Z,48.80
2018-07-17T15:28:22.664Z,49.00
2018-07-17T15:30:51.154Z,49.30
2018-07-17T15:33:19.473Z,49.80
2018-07-17T15:35:47.976Z,50.30
2018-07-17T15:38:16.335Z,51.40
2018-07-17T15:40:44.660Z,50.70
2018-07-17T15:43:12.986Z,51.30
2018-07-17T15:45:41.394Z,52.10
2018-07-17T15:48:09.772Z,52.90
2018-07-17T15:50:38.088Z,52.90
2018-07-17T15:53:06.428Z,53.80
2018-07-17T15:55:34.775Z,54.10
2018-07-17T15:58:03.282Z,54.70
2018-07-17T16:00:31.653Z,54.60
2018-07-17T16:03:00.008Z,55.10
2018-07-17T16:05:28.336Z,54.70
2018-07-17T16:07:56.656Z,54.50
2018-07-17T16:10:24.990Z,54.90
2018-07-17T16:12:53.332Z,55.00
2018-07-17T16:15:21.695Z,53.60
2018-07-17T16:17:50.713Z,51.50
2018-07-17T16:20:19.125Z,50.00
2018-07-17T16:22:47.432Z,50.50
2018-07-17T16:25:15.758Z,52.00
2018-07-17T16:27:44.157Z,52.90
2018-07-17T16:30:13.456Z,51.10
2018-07-17T16:32:41.786Z,50.00
2018-07-17T16:35:10.127Z,49.00
2018-07-17T16:37:39.055Z,50.00
2018-07-17T16:40:07.467Z,52.00
2018-07-17T16:42:35.896Z,53.50
2018-07-17T16:45:05.244Z,52.90
2018-07-17T16:47:33.704Z,53.30
2018-07-17T16:50:02.138Z,54.40
2018-07-17T16:52:30.484Z,55.40
2018-07-17T16:54:58.817Z,56.20
2018-07-17T16:57:27.152Z,56.10
2018-07-17T16:59:55.452Z,56.30
2018-07-17T17:02:23.793Z,56.60
2018-07-17T17:04:52.136Z,57.40
2018-07-17T17:07:20.472Z,60.20
2018-07-17T17:09:48.853Z,63.60
2018-07-17T17:12:17.215Z,66.00
2018-07-17T17:14:45.558Z,67.90
2018-07-17T17:17:13.893Z,79.80
2018-07-17T17:19:42.298Z,79.60
2018-07-17T17:22:11.744Z,84.30
2018-07-17T17:24:40.158Z,87.10
2018-07-17T17:27:08.432Z,84.10
2018-07-17T17:29:36.843Z,84.20
2018-07-17T17:32:05.152Z,84.60
2018-07-17T17:34:33.507Z,84.40
2018-07-17T17:37:01.862Z,84.20
2018-07-17T17:39:30.247Z,84.60
2018-07-17T17:41:58.565Z,84.90
2018-07-17T17:44:26.889Z,85.00
2018-07-17T17:46:55.232Z,84.90
2018-07-17T17:49:23.572Z,83.00
2018-07-17T17:51:51.877Z,82.30
2018-07-17T17:54:20.236Z,81.40
2018-07-17T17:56:48.564Z,79.30
2018-07-17T17:59:17.005Z,79.20
2018-07-17T18:01:45.303Z,78.20
2018-07-17T18:04:13.727Z,76.00
2018-07-17T18:06:42.051Z,75.40
2018-07-17T18:09:10.375Z,74.20
2018-07-17T18:11:38.703Z,73.90
2018-07-17T18:14:07.016Z,74.00
2018-07-17T18:16:35.493Z,72.50
2018-07-17T18:19:03.891Z,71.90
2018-07-17T18:21:32.231Z,72.60
2018-07-17T18:24:00.588Z,73.00
2018-07-17T18:26:28.957Z,72.70
2018-07-17T18:28:57.358Z,72.30
2018-07-17T18:31:26.323Z,72.70
2018-07-17T18:33:54.636Z,72.30
2018-07-17T18:36:22.955Z,73.70
2018-07-17T18:38:51.321Z,72.20
2018-07-17T18:41:19.635Z,72.10
2018-07-17T18:43:47.951Z,71.80
2018-07-17T18:46:16.256Z,71.90
2018-07-17T18:48:47.905Z,71.80
2018-07-17T18:51:16.892Z,71.50
2018-07-17T18:53:45.630Z,71.70
2018-07-17T18:56:14.249Z,71.20
2018-07-17T18:58:43.456Z,71.80
2018-07-17T19:01:11.771Z,73.00
2018-07-17T19:03:40.228Z,74.10
2018-07-17T19:06:09.304Z,72.80
2018-07-17T19:08:38.515Z,73.40
2018-07-17T19:11:07.047Z,75.30
2018-07-17T19:13:35.364Z,74.70
2018-07-17T19:16:03.725Z,73.80
2018-07-17T19:18:32.044Z,74.10
2018-07-17T19:21:00.375Z,76.00
2018-07-17T19:23:28.681Z,79.00
2018-07-17T19:25:58.483Z,79.30
2018-07-17T19:28:26.831Z,77.60
2018-07-17T19:30:55.152Z,80.00
2018-07-17T19:33:24.092Z,82.10
2018-07-17T19:35:52.454Z,83.10
2018-07-17T19:38:20.761Z,80.90
2018-07-17T19:40:49.213Z,78.10
2018-07-17T19:43:17.439Z,77.70
2018-07-17T19:45:45.754Z,77.90
2018-07-17T19:48:14.131Z,77.80
2018-07-17T19:50:42.436Z,78.00
2018-07-17T19:53:10.804Z,78.40
2018-07-17T19:55:39.103Z,79.00
2018-07-17T19:58:07.520Z,79.50
2018-07-17T20:00:35.857Z,80.10
2018-07-17T20:03:04.560Z,80.30
2018-07-17T20:05:32.855Z,81.10
2018-07-17T20:08:01.212Z,81.20
2018-07-17T20:10:29.571Z,81.30
2018-07-17T20:12:57.896Z,81.60
2018-07-17T20:15:26.217Z,81.80
2018-07-17T20:17:54.913Z,82.60
2018-07-17T20:20:23.266Z,83.40
2018-07-17T20:22:51.765Z,83.40
2018-07-17T20:25:20.097Z,83.20
2018-07-17T20:27:48.480Z,83.10
2018-07-17T20:32:44.836Z,83.90
2018-07-17T20:35:13.244Z,83.30
2018-07-17T20:37:41.641Z,82.80
2018-07-17T20:40:10.335Z,83.20
2018-07-17T20:42:38.873Z,82.30
2018-07-17T20:45:07.855Z,81.50
2018-07-17T20:47:36.297Z,81.50
2018-07-17T20:50:05.052Z,81.00
2018-07-17T20:52:36.188Z,80.20
2018-07-17T20:55:05.009Z,80.10
2018-07-17T20:57:34.260Z,80.00
2018-07-17T21:00:02.572Z,80.30
2018-07-17T21:02:30.883Z,80.50
2018-07-17T21:04:59.808Z,80.90
2018-07-17T21:07:28.100Z,81.30
2018-07-17T21:09:56.967Z,82.60
2018-07-17T21:12:25.329Z,82.50
2018-07-17T21:14:53.691Z,82.80
2018-07-17T21:17:22.023Z,82.20
2018-07-17T21:19:50.344Z,82.30
2018-07-17T21:22:18.675Z,82.40
2018-07-17T21:24:46.982Z,82.90
2018-07-17T21:27:15.536Z,83.40
2018-07-17T21:29:43.892Z,82.80
2018-07-17T21:32:12.482Z,82.80
2018-07-17T21:34:40.996Z,83.10
2018-07-17T21:37:09.531Z,83.70
2018-07-17T21:39:38.500Z,84.20
2018-07-17T21:42:07.137Z,84.60
2018-07-17T21:44:35.579Z,85.10
2018-07-17T21:47:03.914Z,84.80
2018-07-17T21:49:32.559Z,84.60
2018-07-17T21:52:00.865Z,84.60
2018-07-17T21:54:29.508Z,84.60
2018-07-17T21:56:57.823Z,84.10
2018-07-17T21:59:26.153Z,83.90
2018-07-17T22:01:54.476Z,83.00
2018-07-17T22:04:22.804Z,81.90
2018-07-17T22:06:51.100Z,81.40
2018-07-17T22:09:19.396Z,81.50
2018-07-17T22:11:47.770Z,81.50
2018-07-17T22:14:16.151Z,82.20
2018-07-17T22:16:44.539Z,83.30
2018-07-17T22:19:12.876Z,84.20
2018-07-17T22:21:41.240Z,84.70
2018-07-17T22:24:09.561Z,84.60
2018-07-17T22:26:37.876Z,84.70
2018-07-17T22:29:06.269Z,84.80
2018-07-17T22:31:34.619Z,84.80
2018-07-17T22:34:02.930Z,85.00
2018-07-17T22:36:31.248Z,85.40
2018-07-17T22:38:59.572Z,85.90
2018-07-17T22:41:28.025Z,86.20
2018-07-17T22:43:56.367Z,86.80
2018-07-17T22:46:24.740Z,87.60
2018-07-17T22:48:53.059Z,87.80
2018-07-17T22:51:21.356Z,87.90
2018-07-17T22:53:49.696Z,87.80
2018-07-17T22:56:18.541Z,88.00
2018-07-17T22:58:46.836Z,88.40
2018-07-17T23:01:15.154Z,89.00
2018-07-17T23:03:43.480Z,89.20
2018-07-17T23:06:11.818Z,89.10
2018-07-17T23:08:40.189Z,89.30
2018-07-17T23:11:08.499Z,89.30
2018-07-17T23:13:36.865Z,89.70
2018-07-17T23:16:05.300Z,89.50
2018-07-17T23:18:34.907Z,89.30
2018-07-17T23:21:03.244Z,89.20
2018-07-17T23:23:31.591Z,88.80
2018-07-17T23:25:59.963Z,88.60
2018-07-17T23:28:28.267Z,88.60
2018-07-17T23:30:56.578Z,88.70
2018-07-17T23:33:24.880Z,89.10
2018-07-17T23:35:53.240Z,89.10
2018-07-17T23:38:21.552Z,88.90
2018-07-17T23:40:49.859Z,88.50
2018-07-17T23:43:18.172Z,88.70
2018-07-17T23:45:46.504Z,88.70
2018-07-17T23:48:14.800Z,88.00
2018-07-17T23:50:43.122Z,88.30
2018-07-17T23:53:11.436Z,88.60
2018-07-17T23:55:39.763Z,89.00
2018-07-17T23:58:08.119Z,89.50
